sensor_id;sensor_type;location;lat;lon;timestamp;P1;durP1;ratioP1;P2;durP2;ratioP2
55053;SDS011;40954;45.668;18.980;2023-05-21T00:02:10;12.13;;;10.10;;
55053;SDS011;40954;45.668;18.980;2023-05-21T00:04:38;11.05;;;9.95;;
55053;SDS011;40954;45.668;18.980;2023-05-21T00:07:07;17.00;;;10.75;;
55053;SDS011;40954;45.668;18.980;2023-05-21T00:09:33;13.10;;;11.82;;
55053;SDS011;40954;45.668;18.980;2023-05-21T00:12:00;17.38;;;11.82;;
55053;SDS011;40954;45.668;18.980;2023-05-21T00:16:52;13.25;;;11.85;;
55053;SDS011;40954;45.668;18.980;2023-05-21T00:19:18;19.75;;;11.90;;
55053;SDS011;40954;45.668;18.980;2023-05-21T00:21:44;16.20;;;11.68;;
55053;SDS011;40954;45.668;18.980;2023-05-21T00:24:10;12.40;;;10.98;;
55053;SDS011;40954;45.668;18.980;2023-05-21T00:26:36;13.55;;;12.15;;
55053;SDS011;40954;45.668;18.980;2023-05-21T00:29:02;22.88;;;12.65;;
55053;SDS011;40954;45.668;18.980;2023-05-21T00:31:28;13.45;;;12.13;;
55053;SDS011;40954;45.668;18.980;2023-05-21T00:33:56;13.35;;;12.05;;
55053;SDS011;40954;45.668;18.980;2023-05-21T00:36:22;14.27;;;11.63;;
55053;SDS011;40954;45.668;18.980;2023-05-21T00:38:49;12.57;;;10.85;;
55053;SDS011;40954;45.668;18.980;2023-05-21T00:41:16;13.02;;;11.82;;
55053;SDS011;40954;45.668;18.980;2023-05-21T00:43:42;18.15;;;11.25;;
55053;SDS011;40954;45.668;18.980;2023-05-21T00:46:18;13.25;;;11.95;;
55053;SDS011;40954;45.668;18.980;2023-05-21T00:48:45;15.93;;;12.10;;
55053;SDS011;40954;45.668;18.980;2023-05-21T00:51:11;11.30;;;10.23;;
55053;SDS011;40954;45.668;18.980;2023-05-21T00:53:38;12.80;;;11.60;;
55053;SDS011;40954;45.668;18.980;2023-05-21T00:56:04;12.60;;;11.13;;
55053;SDS011;40954;45.668;18.980;2023-05-21T00:58:31;15.05;;;11.10;;
55053;SDS011;40954;45.668;18.980;2023-05-21T01:00:58;11.52;;;10.32;;
55053;SDS011;40954;45.668;18.980;2023-05-21T01:03:28;14.35;;;10.02;;
55053;SDS011;40954;45.668;18.980;2023-05-21T01:05:54;11.50;;;10.35;;
55053;SDS011;40954;45.668;18.980;2023-05-21T01:08:24;12.93;;;10.73;;
55053;SDS011;40954;45.668;18.980;2023-05-21T01:10:51;11.88;;;10.77;;
55053;SDS011;40954;45.668;18.980;2023-05-21T01:13:17;15.38;;;10.68;;
55053;SDS011;40954;45.668;18.980;2023-05-21T01:15:44;14.63;;;11.27;;
55053;SDS011;40954;45.668;18.980;2023-05-21T01:18:11;12.50;;;11.20;;
55053;SDS011;40954;45.668;18.980;2023-05-21T01:20:38;13.20;;;10.98;;
55053;SDS011;40954;45.668;18.980;2023-05-21T01:23:06;11.68;;;10.57;;
55053;SDS011;40954;45.668;18.980;2023-05-21T01:25:33;11.80;;;10.60;;
55053;SDS011;40954;45.668;18.980;2023-05-21T01:27:59;16.35;;;11.02;;
55053;SDS011;40954;45.668;18.980;2023-05-21T01:30:25;14.82;;;10.65;;
55053;SDS011;40954;45.668;18.980;2023-05-21T01:33:02;12.25;;;10.98;;
55053;SDS011;40954;45.668;18.980;2023-05-21T01:38:15;12.35;;;10.15;;
55053;SDS011;40954;45.668;18.980;2023-05-21T01:43:12;11.05;;;10.00;;
55053;SDS011;40954;45.668;18.980;2023-05-21T01:45:39;11.32;;;10.13;;
55053;SDS011;40954;45.668;18.980;2023-05-21T01:48:07;11.00;;;9.90;;
55053;SDS011;40954;45.668;18.980;2023-05-21T01:50:34;14.30;;;9.60;;
55053;SDS011;40954;45.668;18.980;2023-05-21T01:53:00;11.38;;;10.32;;
55053;SDS011;40954;45.668;18.980;2023-05-21T01:55:27;12.88;;;10.38;;
55053;SDS011;40954;45.668;18.980;2023-05-21T01:57:55;12.80;;;10.23;;
55053;SDS011;40954;45.668;18.980;2023-05-21T02:00:22;11.98;;;10.05;;
55053;SDS011;40954;45.668;18.980;2023-05-21T02:02:48;12.75;;;9.65;;
55053;SDS011;40954;45.668;18.980;2023-05-21T02:05:15;12.82;;;10.85;;
55053;SDS011;40954;45.668;18.980;2023-05-21T02:07:41;11.90;;;10.13;;
55053;SDS011;40954;45.668;18.980;2023-05-21T02:10:08;11.80;;;9.82;;
55053;SDS011;40954;45.668;18.980;2023-05-21T02:12:34;16.52;;;10.73;;
55053;SDS011;40954;45.668;18.980;2023-05-21T02:15:00;11.18;;;10.00;;
55053;SDS011;40954;45.668;18.980;2023-05-21T02:17:27;12.32;;;10.85;;
55053;SDS011;40954;45.668;18.980;2023-05-21T02:20:01;11.98;;;10.05;;
55053;SDS011;40954;45.668;18.980;2023-05-21T02:22:40;17.40;;;10.85;;
55053;SDS011;40954;45.668;18.980;2023-05-21T02:25:07;14.35;;;10.65;;
55053;SDS011;40954;45.668;18.980;2023-05-21T02:27:36;12.45;;;10.13;;
55053;SDS011;40954;45.668;18.980;2023-05-21T02:30:03;11.18;;;10.07;;
55053;SDS011;40954;45.668;18.980;2023-05-21T02:32:29;16.67;;;10.50;;
55053;SDS011;40954;45.668;18.980;2023-05-21T02:34:56;12.85;;;11.50;;
55053;SDS011;40954;45.668;18.980;2023-05-21T02:37:23;12.63;;;11.35;;
55053;SDS011;40954;45.668;18.980;2023-05-21T02:39:51;17.50;;;11.93;;
55053;SDS011;40954;45.668;18.980;2023-05-21T02:42:17;17.38;;;11.60;;
55053;SDS011;40954;45.668;18.980;2023-05-21T02:44:43;16.60;;;11.90;;
55053;SDS011;40954;45.668;18.980;2023-05-21T02:47:09;12.23;;;10.98;;
55053;SDS011;40954;45.668;18.980;2023-05-21T02:49:36;13.25;;;11.95;;
55053;SDS011;40954;45.668;18.980;2023-05-21T02:52:02;13.02;;;11.52;;
55053;SDS011;40954;45.668;18.980;2023-05-21T02:54:29;15.65;;;11.75;;
55053;SDS011;40954;45.668;18.980;2023-05-21T02:56:55;14.10;;;11.80;;
55053;SDS011;40954;45.668;18.980;2023-05-21T02:59:21;15.15;;;11.60;;
55053;SDS011;40954;45.668;18.980;2023-05-21T03:01:47;13.38;;;11.95;;
55053;SDS011;40954;45.668;18.980;2023-05-21T03:04:14;14.85;;;11.88;;
55053;SDS011;40954;45.668;18.980;2023-05-21T03:06:41;14.48;;;12.13;;
55053;SDS011;40954;45.668;18.980;2023-05-21T03:09:08;13.27;;;11.98;;
55053;SDS011;40954;45.668;18.980;2023-05-21T03:11:35;15.63;;;11.52;;
55053;SDS011;40954;45.668;18.980;2023-05-21T03:14:01;13.48;;;11.20;;
55053;SDS011;40954;45.668;18.980;2023-05-21T03:16:27;12.85;;;11.60;;
55053;SDS011;40954;45.668;18.980;2023-05-21T03:18:58;14.25;;;12.73;;
55053;SDS011;40954;45.668;18.980;2023-05-21T03:21:24;17.58;;;12.23;;
55053;SDS011;40954;45.668;18.980;2023-05-21T03:23:50;16.02;;;11.20;;
55053;SDS011;40954;45.668;18.980;2023-05-21T03:26:17;17.00;;;12.07;;
55053;SDS011;40954;45.668;18.980;2023-05-21T03:28:43;15.05;;;11.63;;
55053;SDS011;40954;45.668;18.980;2023-05-21T03:31:09;13.00;;;11.70;;
55053;SDS011;40954;45.668;18.980;2023-05-21T03:33:35;15.70;;;11.32;;
55053;SDS011;40954;45.668;18.980;2023-05-21T03:36:01;13.70;;;12.15;;
55053;SDS011;40954;45.668;18.980;2023-05-21T03:38:27;15.25;;;11.88;;
55053;SDS011;40954;45.668;18.980;2023-05-21T03:40:53;13.45;;;12.05;;
55053;SDS011;40954;45.668;18.980;2023-05-21T03:43:20;14.07;;;12.07;;
55053;SDS011;40954;45.668;18.980;2023-05-21T03:45:46;15.25;;;11.00;;
55053;SDS011;40954;45.668;18.980;2023-05-21T03:48:12;13.88;;;12.18;;
55053;SDS011;40954;45.668;18.980;2023-05-21T03:50:38;17.10;;;12.07;;
55053;SDS011;40954;45.668;18.980;2023-05-21T03:53:04;13.98;;;12.25;;
55053;SDS011;40954;45.668;18.980;2023-05-21T03:55:30;14.35;;;12.88;;
55053;SDS011;40954;45.668;18.980;2023-05-21T03:57:56;18.70;;;12.15;;
55053;SDS011;40954;45.668;18.980;2023-05-21T04:00:22;13.55;;;12.18;;
55053;SDS011;40954;45.668;18.980;2023-05-21T04:02:48;13.65;;;11.73;;
55053;SDS011;40954;45.668;18.980;2023-05-21T04:05:14;13.75;;;12.25;;
55053;SDS011;40954;45.668;18.980;2023-05-21T04:07:40;18.98;;;11.80;;
55053;SDS011;40954;45.668;18.980;2023-05-21T04:10:07;16.08;;;12.38;;
55053;SDS011;40954;45.668;18.980;2023-05-21T04:12:33;11.93;;;10.75;;
55053;SDS011;40954;45.668;18.980;2023-05-21T04:14:59;15.25;;;11.68;;
55053;SDS011;40954;45.668;18.980;2023-05-21T04:17:26;13.95;;;12.52;;
55053;SDS011;40954;45.668;18.980;2023-05-21T04:19:52;16.55;;;11.65;;
55053;SDS011;40954;45.668;18.980;2023-05-21T04:22:18;15.65;;;11.63;;
55053;SDS011;40954;45.668;18.980;2023-05-21T04:24:45;14.45;;;12.13;;
55053;SDS011;40954;45.668;18.980;2023-05-21T04:27:12;15.73;;;11.82;;
55053;SDS011;40954;45.668;18.980;2023-05-21T04:29:40;14.25;;;11.63;;
55053;SDS011;40954;45.668;18.980;2023-05-21T04:32:07;14.75;;;12.25;;
55053;SDS011;40954;45.668;18.980;2023-05-21T04:34:33;14.40;;;11.90;;
55053;SDS011;40954;45.668;18.980;2023-05-21T04:36:59;16.70;;;12.65;;
55053;SDS011;40954;45.668;18.980;2023-05-21T04:39:28;19.77;;;12.20;;
55053;SDS011;40954;45.668;18.980;2023-05-21T04:41:55;15.13;;;12.73;;
55053;SDS011;40954;45.668;18.980;2023-05-21T04:44:21;13.93;;;11.63;;
55053;SDS011;40954;45.668;18.980;2023-05-21T04:46:47;23.25;;;12.80;;
55053;SDS011;40954;45.668;18.980;2023-05-21T04:49:14;14.63;;;11.80;;
55053;SDS011;40954;45.668;18.980;2023-05-21T04:51:40;14.93;;;12.48;;
55053;SDS011;40954;45.668;18.980;2023-05-21T04:54:06;17.02;;;12.85;;
55053;SDS011;40954;45.668;18.980;2023-05-21T04:56:32;14.05;;;12.55;;
55053;SDS011;40954;45.668;18.980;2023-05-21T04:58:58;17.00;;;12.88;;
55053;SDS011;40954;45.668;18.980;2023-05-21T05:01:24;13.52;;;11.27;;
55053;SDS011;40954;45.668;18.980;2023-05-21T05:03:53;14.35;;;11.40;;
55053;SDS011;40954;45.668;18.980;2023-05-21T05:06:20;14.98;;;12.38;;
55053;SDS011;40954;45.668;18.980;2023-05-21T05:08:46;18.33;;;10.98;;
55053;SDS011;40954;45.668;18.980;2023-05-21T05:11:12;12.70;;;11.00;;
55053;SDS011;40954;45.668;18.980;2023-05-21T05:13:38;13.40;;;10.70;;
55053;SDS011;40954;45.668;18.980;2023-05-21T05:16:08;15.45;;;11.85;;
55053;SDS011;40954;45.668;18.980;2023-05-21T05:18:34;12.40;;;10.93;;
55053;SDS011;40954;45.668;18.980;2023-05-21T05:21:00;14.02;;;11.50;;
55053;SDS011;40954;45.668;18.980;2023-05-21T05:23:26;12.05;;;10.85;;
55053;SDS011;40954;45.668;18.980;2023-05-21T05:25:52;12.13;;;9.95;;
55053;SDS011;40954;45.668;18.980;2023-05-21T05:28:19;14.77;;;11.13;;
55053;SDS011;40954;45.668;18.980;2023-05-21T05:30:45;12.07;;;10.82;;
55053;SDS011;40954;45.668;18.980;2023-05-21T05:33:11;16.23;;;10.90;;
55053;SDS011;40954;45.668;18.980;2023-05-21T05:35:37;12.35;;;11.15;;
55053;SDS011;40954;45.668;18.980;2023-05-21T05:38:03;12.80;;;11.13;;
55053;SDS011;40954;45.668;18.980;2023-05-21T05:40:30;11.77;;;10.60;;
55053;SDS011;40954;45.668;18.980;2023-05-21T05:42:56;16.02;;;11.23;;
55053;SDS011;40954;45.668;18.980;2023-05-21T05:45:22;14.13;;;10.70;;
55053;SDS011;40954;45.668;18.980;2023-05-21T05:47:49;17.25;;;11.70;;
55053;SDS011;40954;45.668;18.980;2023-05-21T05:50:15;13.35;;;10.75;;
55053;SDS011;40954;45.668;18.980;2023-05-21T05:52:41;12.90;;;10.77;;
55053;SDS011;40954;45.668;18.980;2023-05-21T05:55:08;12.68;;;10.90;;
55053;SDS011;40954;45.668;18.980;2023-05-21T05:57:35;16.00;;;11.82;;
55053;SDS011;40954;45.668;18.980;2023-05-21T06:00:02;15.90;;;11.30;;
55053;SDS011;40954;45.668;18.980;2023-05-21T06:02:28;15.57;;;10.93;;
55053;SDS011;40954;45.668;18.980;2023-05-21T06:04:55;15.73;;;10.65;;
55053;SDS011;40954;45.668;18.980;2023-05-21T06:07:22;14.80;;;11.10;;
55053;SDS011;40954;45.668;18.980;2023-05-21T06:09:48;12.98;;;10.10;;
55053;SDS011;40954;45.668;18.980;2023-05-21T06:12:14;11.90;;;10.65;;
55053;SDS011;40954;45.668;18.980;2023-05-21T06:14:41;12.45;;;9.90;;
55053;SDS011;40954;45.668;18.980;2023-05-21T06:17:07;15.05;;;10.80;;
55053;SDS011;40954;45.668;18.980;2023-05-21T06:19:33;14.30;;;10.00;;
55053;SDS011;40954;45.668;18.980;2023-05-21T06:21:59;13.70;;;9.93;;
55053;SDS011;40954;45.668;18.980;2023-05-21T06:24:25;17.13;;;11.18;;
55053;SDS011;40954;45.668;18.980;2023-05-21T06:26:51;12.93;;;10.43;;
55053;SDS011;40954;45.668;18.980;2023-05-21T06:29:17;12.38;;;9.30;;
55053;SDS011;40954;45.668;18.980;2023-05-21T06:31:43;16.73;;;10.00;;
55053;SDS011;40954;45.668;18.980;2023-05-21T06:34:09;14.10;;;9.20;;
55053;SDS011;40954;45.668;18.980;2023-05-21T06:36:35;13.35;;;9.52;;
55053;SDS011;40954;45.668;18.980;2023-05-21T06:39:02;16.63;;;10.32;;
55053;SDS011;40954;45.668;18.980;2023-05-21T06:41:28;11.00;;;9.38;;
55053;SDS011;40954;45.668;18.980;2023-05-21T06:43:54;10.02;;;8.88;;
55053;SDS011;40954;45.668;18.980;2023-05-21T06:46:20;12.98;;;8.38;;
55053;SDS011;40954;45.668;18.980;2023-05-21T06:48:46;10.18;;;9.18;;
55053;SDS011;40954;45.668;18.980;2023-05-21T06:51:12;10.55;;;9.52;;
55053;SDS011;40954;45.668;18.980;2023-05-21T06:53:39;12.48;;;9.40;;
55053;SDS011;40954;45.668;18.980;2023-05-21T06:56:05;13.95;;;8.73;;
55053;SDS011;40954;45.668;18.980;2023-05-21T06:58:31;10.95;;;9.52;;
55053;SDS011;40954;45.668;18.980;2023-05-21T07:00:58;9.70;;;8.73;;
55053;SDS011;40954;45.668;18.980;2023-05-21T07:03:24;9.70;;;8.70;;
55053;SDS011;40954;45.668;18.980;2023-05-21T07:05:51;13.02;;;9.45;;
55053;SDS011;40954;45.668;18.980;2023-05-21T07:08:17;9.60;;;8.60;;
55053;SDS011;40954;45.668;18.980;2023-05-21T07:10:44;11.07;;;8.38;;
55053;SDS011;40954;45.668;18.980;2023-05-21T07:13:10;9.15;;;8.23;;
55053;SDS011;40954;45.668;18.980;2023-05-21T07:15:37;10.40;;;8.98;;
55053;SDS011;40954;45.668;18.980;2023-05-21T07:18:03;10.73;;;8.80;;
55053;SDS011;40954;45.668;18.980;2023-05-21T07:20:29;11.43;;;8.57;;
55053;SDS011;40954;45.668;18.980;2023-05-21T07:22:55;9.15;;;8.23;;
55053;SDS011;40954;45.668;18.980;2023-05-21T07:25:21;11.07;;;8.90;;
55053;SDS011;40954;45.668;18.980;2023-05-21T07:27:47;12.20;;;9.18;;
55053;SDS011;40954;45.668;18.980;2023-05-21T07:30:14;8.88;;;8.07;;
55053;SDS011;40954;45.668;18.980;2023-05-21T07:32:40;9.85;;;8.23;;
55053;SDS011;40954;45.668;18.980;2023-05-21T07:35:06;9.63;;;8.45;;
55053;SDS011;40954;45.668;18.980;2023-05-21T07:37:32;9.15;;;8.20;;
55053;SDS011;40954;45.668;18.980;2023-05-21T07:39:58;18.60;;;9.02;;
55053;SDS011;40954;45.668;18.980;2023-05-21T07:42:24;9.30;;;8.13;;
55053;SDS011;40954;45.668;18.980;2023-05-21T07:44:50;11.55;;;8.05;;
55053;SDS011;40954;45.668;18.980;2023-05-21T07:47:17;10.30;;;7.82;;
55053;SDS011;40954;45.668;18.980;2023-05-21T07:49:43;9.32;;;7.80;;
55053;SDS011;40954;45.668;18.980;2023-05-21T07:52:09;11.10;;;8.30;;
55053;SDS011;40954;45.668;18.980;2023-05-21T07:54:35;13.88;;;9.70;;
55053;SDS011;40954;45.668;18.980;2023-05-21T07:57:01;16.83;;;10.55;;
55053;SDS011;40954;45.668;18.980;2023-05-21T07:59:27;10.77;;;8.90;;
55053;SDS011;40954;45.668;18.980;2023-05-21T08:01:53;13.40;;;8.13;;
55053;SDS011;40954;45.668;18.980;2023-05-21T08:04:19;12.90;;;9.20;;
55053;SDS011;40954;45.668;18.980;2023-05-21T08:06:45;10.80;;;9.70;;
55053;SDS011;40954;45.668;18.980;2023-05-21T08:09:12;10.70;;;8.20;;
55053;SDS011;40954;45.668;18.980;2023-05-21T08:11:38;10.65;;;9.48;;
55053;SDS011;40954;45.668;18.980;2023-05-21T08:14:05;10.52;;;8.50;;
55053;SDS011;40954;45.668;18.980;2023-05-21T08:16:31;11.45;;;9.45;;
55053;SDS011;40954;45.668;18.980;2023-05-21T08:18:57;11.65;;;8.90;;
55053;SDS011;40954;45.668;18.980;2023-05-21T08:21:23;14.98;;;9.73;;
55053;SDS011;40954;45.668;18.980;2023-05-21T08:23:51;14.13;;;10.20;;
55053;SDS011;40954;45.668;18.980;2023-05-21T08:26:18;14.90;;;10.25;;
55053;SDS011;40954;45.668;18.980;2023-05-21T08:28:44;13.43;;;10.05;;
55053;SDS011;40954;45.668;18.980;2023-05-21T08:31:10;10.27;;;7.40;;
55053;SDS011;40954;45.668;18.980;2023-05-21T08:33:36;13.65;;;7.50;;
55053;SDS011;40954;45.668;18.980;2023-05-21T08:36:06;15.27;;;9.15;;
55053;SDS011;40954;45.668;18.980;2023-05-21T08:38:32;10.30;;;8.73;;
55053;SDS011;40954;45.668;18.980;2023-05-21T08:40:59;8.70;;;7.78;;
55053;SDS011;40954;45.668;18.980;2023-05-21T08:43:28;15.63;;;8.32;;
55053;SDS011;40954;45.668;18.980;2023-05-21T08:45:54;13.80;;;9.13;;
55053;SDS011;40954;45.668;18.980;2023-05-21T08:48:23;13.90;;;9.55;;
55053;SDS011;40954;45.668;18.980;2023-05-21T08:50:53;10.52;;;8.77;;
55053;SDS011;40954;45.668;18.980;2023-05-21T08:53:20;11.05;;;9.60;;
55053;SDS011;40954;45.668;18.980;2023-05-21T08:55:47;11.65;;;9.68;;
55053;SDS011;40954;45.668;18.980;2023-05-21T08:58:14;13.27;;;8.90;;
55053;SDS011;40954;45.668;18.980;2023-05-21T09:00:40;13.05;;;9.10;;
55053;SDS011;40954;45.668;18.980;2023-05-21T09:03:06;12.55;;;9.05;;
55053;SDS011;40954;45.668;18.980;2023-05-21T09:05:39;9.77;;;8.82;;
55053;SDS011;40954;45.668;18.980;2023-05-21T09:08:17;10.82;;;8.98;;
55053;SDS011;40954;45.668;18.980;2023-05-21T09:10:49;10.93;;;8.07;;
55053;SDS011;40954;45.668;18.980;2023-05-21T09:13:16;17.63;;;9.35;;
55053;SDS011;40954;45.668;18.980;2023-05-21T09:15:45;9.55;;;8.48;;
55053;SDS011;40954;45.668;18.980;2023-05-21T09:18:15;10.70;;;9.60;;
55053;SDS011;40954;45.668;18.980;2023-05-21T09:20:41;11.25;;;8.18;;
55053;SDS011;40954;45.668;18.980;2023-05-21T09:23:08;16.70;;;9.00;;
55053;SDS011;40954;45.668;18.980;2023-05-21T09:25:40;14.82;;;9.45;;
55053;SDS011;40954;45.668;18.980;2023-05-21T09:28:11;10.90;;;7.03;;
55053;SDS011;40954;45.668;18.980;2023-05-21T09:30:42;10.45;;;8.07;;
55053;SDS011;40954;45.668;18.980;2023-05-21T09:33:08;10.75;;;8.45;;
55053;SDS011;40954;45.668;18.980;2023-05-21T09:35:36;10.18;;;8.75;;
55053;SDS011;40954;45.668;18.980;2023-05-21T09:38:02;17.70;;;8.15;;
55053;SDS011;40954;45.668;18.980;2023-05-21T09:43:00;11.80;;;8.40;;
55053;SDS011;40954;45.668;18.980;2023-05-21T09:45:27;12.77;;;7.50;;
55053;SDS011;40954;45.668;18.980;2023-05-21T09:47:54;10.73;;;8.00;;
55053;SDS011;40954;45.668;18.980;2023-05-21T09:50:21;7.18;;;6.47;;
55053;SDS011;40954;45.668;18.980;2023-05-21T09:52:48;7.65;;;6.93;;
55053;SDS011;40954;45.668;18.980;2023-05-21T09:55:16;8.38;;;7.45;;
55053;SDS011;40954;45.668;18.980;2023-05-21T09:57:44;11.45;;;6.93;;
55053;SDS011;40954;45.668;18.980;2023-05-21T10:02:52;11.05;;;6.03;;
55053;SDS011;40954;45.668;18.980;2023-05-21T10:05:19;9.32;;;5.75;;
55053;SDS011;40954;45.668;18.980;2023-05-21T10:07:49;26.52;;;8.70;;
55053;SDS011;40954;45.668;18.980;2023-05-21T10:10:15;25.90;;;8.25;;
55053;SDS011;40954;45.668;18.980;2023-05-21T10:12:51;14.23;;;8.48;;
55053;SDS011;40954;45.668;18.980;2023-05-21T10:15:27;27.23;;;7.75;;
55053;SDS011;40954;45.668;18.980;2023-05-21T10:17:57;13.57;;;7.82;;
55053;SDS011;40954;45.668;18.980;2023-05-21T10:20:24;12.85;;;8.70;;
55053;SDS011;40954;45.668;18.980;2023-05-21T10:22:50;20.52;;;7.38;;
55053;SDS011;40954;45.668;18.980;2023-05-21T10:25:22;14.90;;;8.00;;
55053;SDS011;40954;45.668;18.980;2023-05-21T10:27:50;11.68;;;7.05;;
55053;SDS011;40954;45.668;18.980;2023-05-21T10:30:18;13.02;;;7.97;;
55053;SDS011;40954;45.668;18.980;2023-05-21T10:32:47;13.85;;;7.18;;
55053;SDS011;40954;45.668;18.980;2023-05-21T10:35:14;9.27;;;6.82;;
55053;SDS011;40954;45.668;18.980;2023-05-21T10:37:42;11.43;;;7.20;;
55053;SDS011;40954;45.668;18.980;2023-05-21T10:40:08;7.45;;;5.57;;
55053;SDS011;40954;45.668;18.980;2023-05-21T10:47:35;9.98;;;6.35;;
55053;SDS011;40954;45.668;18.980;2023-05-21T10:50:13;10.15;;;5.68;;
55053;SDS011;40954;45.668;18.980;2023-05-21T10:55:33;7.53;;;5.30;;
55053;SDS011;40954;45.668;18.980;2023-05-21T11:00:27;12.23;;;6.63;;
55053;SDS011;40954;45.668;18.980;2023-05-21T11:02:56;13.20;;;7.03;;
55053;SDS011;40954;45.668;18.980;2023-05-21T11:05:39;9.27;;;6.50;;
55053;SDS011;40954;45.668;18.980;2023-05-21T11:08:22;7.50;;;5.93;;
55053;SDS011;40954;45.668;18.980;2023-05-21T11:10:57;10.30;;;5.82;;
55053;SDS011;40954;45.668;18.980;2023-05-21T11:13:23;10.55;;;5.95;;
55053;SDS011;40954;45.668;18.980;2023-05-21T11:26:18;5.82;;;4.50;;
55053;SDS011;40954;45.668;18.980;2023-05-21T11:28:45;5.53;;;4.78;;
55053;SDS011;40954;45.668;18.980;2023-05-21T11:31:24;8.13;;;5.72;;
55053;SDS011;40954;45.668;18.980;2023-05-21T11:34:07;9.02;;;6.00;;
55053;SDS011;40954;45.668;18.980;2023-05-21T11:36:35;10.93;;;5.82;;
55053;SDS011;40954;45.668;18.980;2023-05-21T11:41:57;13.68;;;7.40;;
55053;SDS011;40954;45.668;18.980;2023-05-21T11:44:36;7.57;;;6.53;;
55053;SDS011;40954;45.668;18.980;2023-05-21T11:47:04;17.45;;;7.00;;
55053;SDS011;40954;45.668;18.980;2023-05-21T11:51:56;26.08;;;9.48;;
55053;SDS011;40954;45.668;18.980;2023-05-21T11:54:23;7.78;;;4.78;;
55053;SDS011;40954;45.668;18.980;2023-05-21T11:56:49;18.55;;;7.93;;
55053;SDS011;40954;45.668;18.980;2023-05-21T11:59:16;12.05;;;7.18;;
55053;SDS011;40954;45.668;18.980;2023-05-21T12:01:42;12.38;;;7.63;;
55053;SDS011;40954;45.668;18.980;2023-05-21T12:04:08;27.95;;;10.18;;
55053;SDS011;40954;45.668;18.980;2023-05-21T12:06:36;16.17;;;8.73;;
55053;SDS011;40954;45.668;18.980;2023-05-21T12:09:02;5.70;;;4.70;;
55053;SDS011;40954;45.668;18.980;2023-05-21T12:13:55;18.85;;;16.35;;
55053;SDS011;40954;45.668;18.980;2023-05-21T12:16:21;8.90;;;6.15;;
55053;SDS011;40954;45.668;18.980;2023-05-21T12:18:47;6.47;;;5.72;;
55053;SDS011;40954;45.668;18.980;2023-05-21T12:21:13;6.13;;;4.90;;
55053;SDS011;40954;45.668;18.980;2023-05-21T12:23:39;7.10;;;4.32;;
55053;SDS011;40954;45.668;18.980;2023-05-21T12:26:06;5.80;;;4.80;;
55053;SDS011;40954;45.668;18.980;2023-05-21T12:28:33;5.75;;;4.25;;
55053;SDS011;40954;45.668;18.980;2023-05-21T12:31:00;6.90;;;4.50;;
55053;SDS011;40954;45.668;18.980;2023-05-21T12:33:32;9.00;;;5.93;;
55053;SDS011;40954;45.668;18.980;2023-05-21T12:35:58;8.18;;;4.10;;
55053;SDS011;40954;45.668;18.980;2023-05-21T12:38:28;7.32;;;4.13;;
55053;SDS011;40954;45.668;18.980;2023-05-21T12:40:55;4.55;;;4.15;;
55053;SDS011;40954;45.668;18.980;2023-05-21T12:43:21;4.93;;;4.35;;
55053;SDS011;40954;45.668;18.980;2023-05-21T12:45:47;5.57;;;4.53;;
55053;SDS011;40954;45.668;18.980;2023-05-21T12:48:13;7.57;;;6.53;;
55053;SDS011;40954;45.668;18.980;2023-05-21T12:50:40;6.10;;;5.50;;
55053;SDS011;40954;45.668;18.980;2023-05-21T12:53:08;5.95;;;4.80;;
55053;SDS011;40954;45.668;18.980;2023-05-21T12:55:37;8.23;;;5.13;;
55053;SDS011;40954;45.668;18.980;2023-05-21T12:58:04;5.82;;;4.15;;
55053;SDS011;40954;45.668;18.980;2023-05-21T13:00:32;6.93;;;5.53;;
55053;SDS011;40954;45.668;18.980;2023-05-21T13:02:58;5.68;;;5.18;;
55053;SDS011;40954;45.668;18.980;2023-05-21T13:05:25;5.00;;;4.00;;
55053;SDS011;40954;45.668;18.980;2023-05-21T13:07:51;9.70;;;4.75;;
55053;SDS011;40954;45.668;18.980;2023-05-21T13:10:17;5.68;;;4.43;;
55053;SDS011;40954;45.668;18.980;2023-05-21T13:12:44;8.80;;;8.00;;
55053;SDS011;40954;45.668;18.980;2023-05-21T13:15:10;8.57;;;5.32;;
55053;SDS011;40954;45.668;18.980;2023-05-21T13:17:36;8.73;;;5.55;;
55053;SDS011;40954;45.668;18.980;2023-05-21T13:20:06;4.88;;;4.43;;
55053;SDS011;40954;45.668;18.980;2023-05-21T13:22:33;6.10;;;5.45;;
55053;SDS011;40954;45.668;18.980;2023-05-21T13:25:01;7.45;;;4.60;;
55053;SDS011;40954;45.668;18.980;2023-05-21T13:27:27;5.40;;;4.30;;
55053;SDS011;40954;45.668;18.980;2023-05-21T13:29:53;6.63;;;4.40;;
55053;SDS011;40954;45.668;18.980;2023-05-21T13:32:19;5.53;;;4.13;;
55053;SDS011;40954;45.668;18.980;2023-05-21T13:34:45;6.43;;;3.88;;
55053;SDS011;40954;45.668;18.980;2023-05-21T13:37:12;6.53;;;4.47;;
55053;SDS011;40954;45.668;18.980;2023-05-21T13:39:38;7.28;;;4.22;;
55053;SDS011;40954;45.668;18.980;2023-05-21T13:42:04;8.55;;;4.80;;
55053;SDS011;40954;45.668;18.980;2023-05-21T13:44:31;5.05;;;4.20;;
55053;SDS011;40954;45.668;18.980;2023-05-21T13:47:03;5.60;;;4.00;;
55053;SDS011;40954;45.668;18.980;2023-05-21T13:49:30;5.70;;;4.15;;
55053;SDS011;40954;45.668;18.980;2023-05-21T13:51:56;11.15;;;4.60;;
55053;SDS011;40954;45.668;18.980;2023-05-21T13:54:24;7.80;;;4.55;;
55053;SDS011;40954;45.668;18.980;2023-05-21T13:56:50;5.10;;;4.18;;
55053;SDS011;40954;45.668;18.980;2023-05-21T13:59:16;5.95;;;4.60;;
55053;SDS011;40954;45.668;18.980;2023-05-21T14:01:43;8.20;;;4.60;;
55053;SDS011;40954;45.668;18.980;2023-05-21T14:04:10;8.65;;;4.93;;
55053;SDS011;40954;45.668;18.980;2023-05-21T14:06:36;9.90;;;4.85;;
55053;SDS011;40954;45.668;18.980;2023-05-21T14:09:03;6.38;;;4.30;;
55053;SDS011;40954;45.668;18.980;2023-05-21T14:11:29;6.28;;;4.60;;
55053;SDS011;40954;45.668;18.980;2023-05-21T14:13:56;5.00;;;4.50;;
55053;SDS011;40954;45.668;18.980;2023-05-21T14:16:23;9.07;;;4.32;;
55053;SDS011;40954;45.668;18.980;2023-05-21T14:18:51;5.93;;;4.50;;
55053;SDS011;40954;45.668;18.980;2023-05-21T14:21:17;5.40;;;4.15;;
55053;SDS011;40954;45.668;18.980;2023-05-21T14:23:44;6.43;;;4.40;;
55053;SDS011;40954;45.668;18.980;2023-05-21T14:26:10;9.43;;;4.88;;
55053;SDS011;40954;45.668;18.980;2023-05-21T14:28:37;8.55;;;4.55;;
55053;SDS011;40954;45.668;18.980;2023-05-21T14:31:03;6.70;;;4.60;;
55053;SDS011;40954;45.668;18.980;2023-05-21T14:33:29;5.15;;;4.65;;
55053;SDS011;40954;45.668;18.980;2023-05-21T14:35:56;7.43;;;4.28;;
55053;SDS011;40954;45.668;18.980;2023-05-21T14:38:22;8.32;;;4.90;;
55053;SDS011;40954;45.668;18.980;2023-05-21T14:40:48;6.10;;;4.40;;
55053;SDS011;40954;45.668;18.980;2023-05-21T14:43:15;6.53;;;5.05;;
55053;SDS011;40954;45.668;18.980;2023-05-21T14:45:41;13.02;;;5.40;;
55053;SDS011;40954;45.668;18.980;2023-05-21T14:48:07;6.30;;;4.53;;
55053;SDS011;40954;45.668;18.980;2023-05-21T14:50:33;7.95;;;5.57;;
55053;SDS011;40954;45.668;18.980;2023-05-21T14:53:03;5.20;;;4.70;;
55053;SDS011;40954;45.668;18.980;2023-05-21T14:55:30;7.07;;;4.85;;
55053;SDS011;40954;45.668;18.980;2023-05-21T14:57:57;6.03;;;4.70;;
55053;SDS011;40954;45.668;18.980;2023-05-21T15:00:23;6.88;;;5.10;;